Impacts METAR Board
IDs:

KPDX - Portland Intl Arpt, OR, US

Updated at: 2200 UTC 18 Nov 2018
Potential Impact None Slight Moderate High
Time 18/10Z 18/11Z 18/12Z 18/13Z 18/14Z 18/15Z 18/16Z 18/17Z 18/18Z 18/19Z 18/20Z 18/21Z 18/22Z
Temp46 40 38 40 37 37 37 42 46 49 52 54 55
Dewpt31 32 32 33 31 33 33 36 35 35 34 35 34
Altim30.18 30.18 30.18 30.18 30.17 30.17 30.19 30.20 30.20 30.20 30.17 30.16 30.14
VIS10 10 10 10 10 10 10 10 10 10 10 10 10
CIG-- -- -- -- -- -- -- -- -- -- -- -- --
CoverCLRCLRCLRCLRCLRCLRCLRFEWFEWCLRCLRCLRCLR
FltCatVFRVFRVFRVFRVFRVFRVFRVFRVFRVFRVFRVFRVFR
WX--------------------------
WDir30028029029029030031003002902501010
WSpd4 5 3 4 3 5 3 0 6 5 3 3 3
WGst-- -- -- -- -- -- -- -- -- -- -- -- --
Raw hourly METARs
KPDX 180953Z 30004KT 10SM CLR 08/M01 A3018 RMK AO2 SLP218 T00781006
KPDX 181053Z 28005KT 10SM CLR 04/00 A3018 RMK AO2 SLP220 T00440000
KPDX 181153Z 29003KT 10SM CLR 03/00 A3018 RMK AO2 SLP217 T00330000 10100 20028 50000
KPDX 181253Z 29004KT 10SM CLR 04/01 A3018 RMK AO2 SLP218 T00440006
KPDX 181353Z 29003KT 10SM CLR 03/M01 A3017 RMK AO2 SLP216 T00281006
KPDX 181453Z 30005KT 10SM CLR 03/01 A3017 RMK AO2 SLP216 T00280006 58001
KPDX 181553Z 31003KT 10SM CLR 03/01 A3019 RMK AO2 SLP221 T00280006
KPDX 181653Z 00000KT 10SM FEW250 06/02 A3020 RMK AO2 SLP225 T00560022
KPDX 181753Z 30006KT 10SM FEW250 08/02 A3020 RMK AO2 SLP226 T00780017 10078 20017 51010
KPDX 181853Z 29005KT 10SM CLR 09/02 A3020 RMK AO2 SLP225 T00940017
KPDX 181953Z 25003KT 10SM CLR 11/01 A3017 RMK AO2 SLP217 T01110011
KPDX 182053Z 01003KT 10SM CLR 12/02 A3016 RMK AO2 SLP211 T01220017 58015
KPDX 182153Z 01003KT 10SM CLR 13/01 A3014 RMK AO2 SLP207 T01280011



Page loaded:  22:41 UTC  |   02:41 PM Pacific  |   03:41 PM Mountain  |   04:41 PM Central  |   05:41 PM Eastern

 

ADVISORIES

FORECASTS

FORECASTS

OBSERVATIONS

USER TOOLS

ABOUT US